Time;durP1;ratioP1;P1;durP2;ratioP2;P2;SDS_P1;SDS_P2;PMS_P1;PMS_P2;Temp;Humidity;BMP_temperature;BMP_pressure;BME280_temperature;BME280_humidity;BME280_pressure;Samples;Min_cycle;Max_cycle;Signal;HPM_P1;HPM_P2
2021/01/23 00:02:17;;;;;;;6.38;3.58;;;282.40;1587.20;;;;;;5093361;28;20020;-59
2021/01/23 00:04:43;;;;;;;9.35;4.70;;;282.50;1587.20;;;;;;5094106;28;20044;-59
2021/01/23 00:07:09;;;;;;;6.38;4.18;;;282.50;1612.80;;;;;;5105978;28;20077;-60
2021/01/23 00:09:35;;;;;;;7.53;3.50;;;282.50;1587.20;;;;;;5099034;28;20362;-59
2021/01/23 00:12:02;;;;;;;6.53;3.40;;;282.40;1587.20;;;;;;5095226;28;20052;-60
2021/01/23 00:14:28;;;;;;;5.57;3.67;;;282.50;1587.20;;;;;;5096578;28;20492;-59
2021/01/23 00:16:53;;;;;;;8.23;3.63;;;282.50;1587.20;;;;;;5097446;28;20016;-60
2021/01/23 00:19:19;;;;;;;7.55;3.65;;;307.20;1587.20;;;;;;5104437;28;20032;-59
2021/01/23 00:21:45;;;;;;;7.57;3.90;;;282.50;1561.60;;;;;;5104240;28;20043;-59
2021/01/23 00:24:12;;;;;;;6.88;3.53;;;282.50;1561.60;;;;;;5103297;28;20028;-59
2021/01/23 00:26:38;;;;;;;8.20;4.38;;;282.50;1561.60;;;;;;5085484;28;20063;-59
2021/01/23 00:29:03;;;;;;;6.10;3.97;;;282.50;1561.60;;;;;;5103055;28;20020;-57
2021/01/23 00:31:29;;;;;;;10.00;4.10;;;282.50;1561.60;;;;;;5096689;28;20028;-57
2021/01/23 00:33:55;;;;;;;10.40;4.47;;;307.20;1587.20;;;;;;5107298;28;20019;-58
2021/01/23 00:36:21;;;;;;;5.03;3.28;;;282.50;1561.60;;;;;;5112630;28;20027;-59
2021/01/23 00:38:46;;;;;;;10.05;3.92;;;282.50;1561.60;;;;;;5104784;28;20046;-57
2021/01/23 00:41:12;;;;;;;7.15;3.72;;;282.50;1561.60;;;;;;5110574;28;20069;-57
2021/01/23 00:43:38;;;;;;;9.13;4.07;;;282.50;1561.60;;;;;;5109079;28;20103;-57
2021/01/23 00:46:04;;;;;;;8.05;3.70;;;282.50;1561.60;;;;;;5111333;28;20042;-57
2021/01/23 00:48:30;;;;;;;10.00;3.60;;;282.50;1561.60;;;;;;5110634;28;20012;-58
2021/01/23 00:50:55;;;;;;;10.25;4.00;;;282.50;1561.60;;;;;;5112224;28;20026;-57
2021/01/23 00:53:21;;;;;;;5.40;3.47;;;282.50;1561.60;;;;;;5112150;28;20024;-57
2021/01/23 00:55:47;;;;;;;9.55;4.22;;;282.40;1561.60;;;;;;5103783;28;20031;-58
2021/01/23 00:58:13;;;;;;;5.90;3.83;;;282.50;1536.00;;;;;;5108126;28;20024;-57
2021/01/23 01:00:39;;;;;;;6.45;4.05;;;282.50;1561.60;;;;;;5110355;28;20388;-57
2021/01/23 01:03:05;;;;;;;5.82;3.92;;;282.50;1536.00;;;;;;5110029;28;20027;-58
2021/01/23 01:05:30;;;;;;;6.50;3.50;;;282.50;1536.00;;;;;;5107501;28;20052;-58
2021/01/23 01:07:56;;;;;;;8.05;4.07;;;282.40;1536.00;;;;;;5109902;28;20019;-58
2021/01/23 01:10:21;;;;;;;5.43;3.92;;;282.40;1536.00;;;;;;5110765;28;20020;-58
2021/01/23 01:12:47;;;;;;;7.55;4.20;;;282.40;1536.00;;;;;;5108930;28;20024;-58
2021/01/23 01:15:13;;;;;;;7.03;3.90;;;282.40;1536.00;;;;;;5114555;28;20099;-58
2021/01/23 01:17:39;;;;;;;6.15;3.17;;;282.50;1536.00;;;;;;5115777;28;20023;-59
2021/01/23 01:20:05;;;;;;;7.25;3.83;;;282.50;1536.00;;;;;;5114240;28;20518;-59
2021/01/23 01:22:31;;;;;;;8.32;3.40;;;282.50;1536.00;;;;;;5111685;28;20381;-58
2021/01/23 01:24:57;;;;;;;8.40;3.65;;;282.40;1536.00;;;;;;5114539;28;20024;-58
2021/01/23 01:27:23;;;;;;;5.95;3.70;;;282.50;1536.00;;;;;;5115202;28;20380;-61
2021/01/23 01:29:49;;;;;;;7.13;3.85;;;307.20;1561.60;;;;;;5114222;28;20566;-58
2021/01/23 01:32:15;;;;;;;8.32;3.63;;;307.20;1536.00;;;;;;5115944;28;20028;-59
2021/01/23 01:34:40;;;;;;;8.90;3.60;;;307.20;1536.00;;;;;;5113856;28;20028;-57
2021/01/23 01:37:06;;;;;;;10.55;4.00;;;307.30;1536.00;;;;;;5107677;28;20031;-58
2021/01/23 01:39:32;;;;;;;9.68;3.53;;;307.40;1510.40;;;;;;5107132;28;20033;-58
2021/01/23 01:41:57;;;;;;;7.25;4.18;;;307.40;1536.00;;;;;;5113538;28;20046;-58
2021/01/23 01:44:23;;;;;;;6.45;3.75;;;307.40;1510.40;;;;;;5113850;28;20059;-59
2021/01/23 01:46:49;;;;;;;9.82;3.30;;;307.40;1536.00;;;;;;5112339;28;20073;-58
2021/01/23 01:49:14;;;;;;;8.25;3.92;;;307.40;1510.40;;;;;;5115337;28;20032;-59
2021/01/23 01:51:40;;;;;;;6.95;3.75;;;307.40;1510.40;;;;;;5112728;28;20085;-58
2021/01/23 01:54:06;;;;;;;6.13;3.80;;;307.30;1536.00;;;;;;5113020;28;20039;-57
2021/01/23 01:56:31;;;;;;;9.27;3.95;;;307.30;1536.00;;;;;;5111101;28;20019;-57
2021/01/23 01:58:57;;;;;;;7.88;3.75;;;307.30;1510.40;;;;;;5095709;28;20055;-57
2021/01/23 02:01:23;;;;;;;11.68;4.20;;;307.40;1536.00;;;;;;5095670;28;20023;-58
2021/01/23 02:04:23;;;;;;;8.73;3.38;;;307.40;1536.00;;;;;;5095529;28;20031;-58
2021/01/23 02:07:13;;;;;;;6.95;3.15;;;307.30;1510.40;;;;;;5095877;28;20093;-59
2021/01/23 02:10:02;;;;;;;10.30;3.22;;;307.30;1536.00;;;;;;5095806;28;20020;-57
2021/01/23 02:12:46;;;;;;;7.85;3.50;;;307.30;1510.40;;;;;;5096191;28;20531;-58
2021/01/23 02:15:15;;;;;;;9.10;3.75;;;307.30;1510.40;;;;;;5096876;28;20032;-57
2021/01/23 02:17:47;;;;;;;7.20;3.58;;;307.30;1510.40;;;;;;5097458;28;20066;-58
2021/01/23 02:20:54;;;;;;;6.43;4.05;;;307.30;1510.40;;;;;;5098219;28;20421;-58
2021/01/23 02:23:28;;;;;;;9.88;4.57;;;307.40;1510.40;;;;;;5014376;28;20041;-60
2021/01/23 02:26:03;;;;;;;7.75;4.15;;;307.40;1510.40;;;;;;5013215;28;20112;-61
2021/01/23 02:28:41;;;;;;;10.02;4.05;;;307.30;1510.40;;;;;;5013058;28;20395;-58
2021/01/23 02:31:12;;;;;;;10.80;4.05;;;307.40;1510.40;;;;;;5013341;28;20030;-58
2021/01/23 02:33:39;;;;;;;8.30;4.82;;;307.40;1510.40;;;;;;5013051;28;20396;-59
2021/01/23 02:36:08;;;;;;;6.68;4.07;;;307.40;1510.40;;;;;;5013162;28;20108;-58
2021/01/23 02:38:35;;;;;;;7.70;3.33;;;307.40;1510.40;;;;;;5012933;28;20026;-58
2021/01/23 02:41:02;;;;;;;5.22;3.97;;;307.40;1484.80;;;;;;5013079;28;20384;-58
2021/01/23 02:43:28;;;;;;;6.28;3.92;;;307.40;1510.40;;;;;;5012813;28;20133;-59
2021/01/23 02:45:53;;;;;;;6.63;3.85;;;307.40;1510.40;;;;;;5012902;28;20034;-58
2021/01/23 02:48:19;;;;;;;8.90;4.07;;;307.40;1510.40;;;;;;5012797;28;20124;-58
2021/01/23 02:50:46;;;;;;;10.00;4.57;;;307.40;1484.80;;;;;;5013103;28;20045;-58
2021/01/23 02:53:12;;;;;;;7.43;3.60;;;307.50;1484.80;;;;;;5012443;28;20026;-58
2021/01/23 02:55:41;;;;;;;6.88;3.53;;;307.50;1484.80;;;;;;5012880;28;20026;-58
2021/01/23 02:58:09;;;;;;;6.80;3.22;;;307.60;1459.20;;;;;;5012576;28;20022;-56
2021/01/23 03:00:36;;;;;;;9.93;4.20;;;307.50;1484.80;;;;;;5073353;28;20035;-58
2021/01/23 03:03:03;;;;;;;7.25;3.55;;;307.60;1459.20;;;;;;5094378;28;20030;-58
2021/01/23 03:05:33;;;;;;;7.85;3.00;;;307.70;1459.20;;;;;;5094534;28;20051;-58
2021/01/23 03:07:59;;;;;;;6.40;3.35;;;307.70;1459.20;;;;;;5094425;28;20032;-58
2021/01/23 03:10:37;;;;;;;11.38;4.47;;;307.70;1459.20;;;;;;5094539;28;20428;-58
2021/01/23 03:13:04;;;;;;;8.50;3.30;;;307.70;1433.60;;;;;;5094293;28;20016;-59
2021/01/23 03:15:29;;;;;;;6.80;3.50;;;307.80;1433.60;;;;;;5092917;28;20027;-61
2021/01/23 03:17:56;;;;;;;11.13;3.55;;;307.80;1433.60;;;;;;5083815;28;20028;-58
2021/01/23 03:20:22;;;;;;;9.10;3.55;;;307.80;1433.60;;;;;;5088424;28;20027;-58
2021/01/23 03:22:48;;;;;;;6.50;3.65;;;307.80;1433.60;;;;;;5094115;28;20028;-59
2021/01/23 03:25:13;;;;;;;6.88;3.60;;;307.80;1433.60;;;;;;5094194;28;20385;-58
2021/01/23 03:27:39;;;;;;;7.75;3.30;;;307.80;1433.60;;;;;;5093628;28;20046;-58
2021/01/23 03:30:06;;;;;;;8.15;3.60;;;307.70;1459.20;;;;;;5094501;28;20040;-58
2021/01/23 03:32:31;;;;;;;10.38;3.55;;;307.80;1433.60;;;;;;5094768;28;20424;-58
2021/01/23 03:34:57;;;;;;;9.32;3.30;;;307.80;1433.60;;;;;;5094470;28;20028;-58
2021/01/23 03:37:24;;;;;;;7.10;3.25;;;307.80;1433.60;;;;;;5096496;28;20065;-59
2021/01/23 03:39:53;;;;;;;9.10;3.13;;;307.80;1433.60;;;;;;5109000;28;20080;-59
2021/01/23 03:42:19;;;;;;;;;;;307.80;1433.60;;;;;;5100238;28;20030;-57
2021/01/23 03:44:45;;;;;;;7.40;2.92;;;307.80;1433.60;;;;;;5095934;28;19911;-57
2021/01/23 03:47:11;;;;;;;5.22;3.28;;;307.70;1459.20;;;;;;5113866;28;20016;-59
2021/01/23 03:49:36;;;;;;;7.80;3.33;;;307.70;1459.20;;;;;;5109963;28;20030;-58
2021/01/23 03:52:03;;;;;;;8.93;3.65;;;307.80;1433.60;;;;;;5104054;28;20121;-58
2021/01/23 03:54:29;;;;;;;8.73;3.60;;;307.90;1433.60;;;;;;5113904;28;20024;-58
2021/01/23 03:56:54;;;;;;;5.70;2.83;;;307.90;1433.60;;;;;;5113987;28;20016;-58
2021/01/23 03:59:20;;;;;;;15.93;3.55;;;307.90;1433.60;;;;;;5113690;28;20031;-58
2021/01/23 04:01:46;;;;;;;8.38;3.53;;;307.90;1433.60;;;;;;5114309;28;20019;-58
2021/01/23 04:04:12;;;;;;;7.65;2.90;;;307.90;1408.00;;;;;;5101030;28;20556;-58
2021/01/23 04:06:37;;;;;;;11.30;3.22;;;307.90;1433.60;;;;;;5108188;28;20028;-58
2021/01/23 04:09:03;;;;;;;8.07;3.08;;;307.90;1433.60;;;;;;5103327;28;20016;-58
2021/01/23 04:11:29;;;;;;;5.43;2.90;;;308.00;1408.00;;;;;;5113803;28;20032;-58
2021/01/23 04:13:54;;;;;;;10.05;3.05;;;307.90;1433.60;;;;;;5113592;28;20479;-58
2021/01/23 04:16:20;;;;;;;8.43;3.13;;;307.80;1433.60;;;;;;5113611;28;20528;-57
2021/01/23 04:18:46;;;;;;;6.55;3.10;;;307.80;1433.60;;;;;;5112918;28;20015;-58
2021/01/23 04:21:11;;;;;;;6.60;3.25;;;307.70;1433.60;;;;;;5093192;28;20180;-58
2021/01/23 04:23:38;;;;;;;8.15;2.83;;;307.60;1459.20;;;;;;5092912;28;20024;-58
2021/01/23 04:26:03;;;;;;;5.53;3.38;;;307.60;1459.20;;;;;;5093268;28;20043;-59
2021/01/23 04:28:29;;;;;;;5.38;3.00;;;307.60;1459.20;;;;;;5092981;28;20028;-59
2021/01/23 04:30:55;;;;;;;5.55;2.90;;;307.60;1459.20;;;;;;5092630;28;20109;-57
2021/01/23 04:33:20;;;;;;;9.80;3.28;;;307.60;1459.20;;;;;;5092761;28;20042;-57
2021/01/23 04:35:46;;;;;;;6.40;2.58;;;307.60;1484.80;;;;;;5092767;28;20032;-58
2021/01/23 04:38:12;;;;;;;8.38;2.92;;;307.60;1459.20;;;;;;5092840;28;20408;-57
2021/01/23 04:40:37;;;;;;;6.50;3.45;;;307.60;1459.20;;;;;;5093016;28;20031;-58
2021/01/23 04:43:03;;;;;;;7.95;3.20;;;307.60;1459.20;;;;;;5093024;28;20074;-59
2021/01/23 04:45:29;;;;;;;8.95;3.47;;;307.60;1459.20;;;;;;5092765;28;20485;-58
2021/01/23 04:47:55;;;;;;;9.73;3.38;;;307.50;1484.80;;;;;;5092328;28;20462;-58
2021/01/23 04:50:21;;;;;;;8.90;3.13;;;307.50;1459.20;;;;;;5092838;28;20024;-58
2021/01/23 04:52:46;;;;;;;6.53;2.38;;;307.40;1484.80;;;;;;5092476;28;20365;-58
2021/01/23 04:55:12;;;;;;;7.00;3.20;;;307.50;1484.80;;;;;;5074551;28;20024;-58
2021/01/23 04:57:41;;;;;;;7.57;3.97;;;307.50;1484.80;;;;;;5092637;28;20024;-58
2021/01/23 05:00:07;;;;;;;8.73;3.08;;;307.50;1484.80;;;;;;5092649;28;20024;-58
2021/01/23 05:02:33;;;;;;;8.50;3.40;;;307.50;1484.80;;;;;;5092450;28;20032;-58
2021/01/23 05:05:03;;;;;;;6.20;3.05;;;307.50;1484.80;;;;;;5095119;28;20569;-59
2021/01/23 05:07:37;;;;;;;7.38;3.78;;;307.30;1484.80;;;;;;5095049;28;20054;-58
2021/01/23 05:10:24;;;;;;;7.47;3.03;;;307.40;1484.80;;;;;;5095008;28;20107;-58
2021/01/23 05:12:55;;;;;;;7.70;3.75;;;307.40;1484.80;;;;;;5093919;28;20024;-60
2021/01/23 05:15:26;;;;;;;7.03;3.47;;;307.40;1484.80;;;;;;5092877;28;20047;-58
2021/01/23 05:17:57;;;;;;;8.88;3.30;;;307.50;1484.80;;;;;;5092526;28;20078;-58
2021/01/23 05:20:39;;;;;;;6.07;3.30;;;307.50;1459.20;;;;;;5092462;28;20077;-58
2021/01/23 05:23:20;;;;;;;7.10;3.00;;;307.50;1484.80;;;;;;5092893;28;20448;-58
2021/01/23 05:26:00;;;;;;;13.93;4.10;;;307.50;1484.80;;;;;;5092418;28;20115;-58
2021/01/23 05:28:28;;;;;;;5.88;3.10;;;307.50;1484.80;;;;;;5092797;28;20405;-58
2021/01/23 05:30:55;;;;;;;6.88;2.90;;;307.40;1484.80;;;;;;5092145;28;20055;-59
2021/01/23 05:33:26;;;;;;;10.77;4.28;;;307.40;1459.20;;;;;;5092579;28;20039;-60
2021/01/23 05:36:03;;;;;;;9.80;3.33;;;307.30;1484.80;;;;;;5092283;28;20032;-58
2021/01/23 05:38:36;;;;;;;9.50;3.38;;;307.40;1484.80;;;;;;5092168;28;20035;-58
2021/01/23 05:41:04;;;;;;;10.40;3.58;;;307.40;1459.20;;;;;;5091948;28;20027;-58
2021/01/23 05:43:41;;;;;;;11.60;3.60;;;307.40;1459.20;;;;;;5092387;28;20028;-57
2021/01/23 05:46:13;;;;;;;10.15;2.45;;;307.40;1459.20;;;;;;5092152;28;20032;-57
2021/01/23 05:48:48;;;;;;;9.07;3.20;;;307.40;1459.20;;;;;;5092478;28;20103;-58
2021/01/23 05:51:15;;;;;;;6.53;3.03;;;307.40;1459.20;;;;;;5091814;28;20024;-59
2021/01/23 05:53:42;;;;;;;7.47;3.10;;;307.30;1484.80;;;;;;5092277;28;20374;-58
2021/01/23 05:56:08;;;;;;;6.75;2.97;;;307.40;1459.20;;;;;;5092290;28;20020;-59
2021/01/23 05:58:36;;;;;;;6.18;3.42;;;307.40;1459.20;;;;;;5092188;28;20507;-61
2021/01/23 06:01:04;;;;;;;9.15;2.88;;;307.30;1484.80;;;;;;5094335;28;20032;-59
2021/01/23 06:03:37;;;;;;;9.18;3.10;;;307.30;1459.20;;;;;;5095965;28;20040;-58
2021/01/23 06:06:03;;;;;;;7.55;3.67;;;307.40;1484.80;;;;;;5095720;28;20075;-58
2021/01/23 06:08:39;;;;;;;8.52;3.42;;;307.30;1484.80;;;;;;5081148;28;20027;-58
2021/01/23 06:11:05;;;;;;;7.95;3.17;;;307.30;1484.80;;;;;;5087664;28;20024;-58
2021/01/23 06:13:36;;;;;;;4.05;2.70;;;307.20;1484.80;;;;;;5095487;28;20012;-62
2021/01/23 06:16:02;;;;;;;4.40;2.90;;;307.20;1484.80;;;;;;5095692;28;20051;-59
2021/01/23 06:18:30;;;;;;;9.65;3.20;;;307.30;1484.80;;;;;;5095242;28;20016;-58
2021/01/23 06:21:01;;;;;;;5.72;3.10;;;307.30;1484.80;;;;;;5095573;28;20024;-58
2021/01/23 06:23:50;;;;;;;10.45;3.20;;;307.30;1484.80;;;;;;5095269;28;20020;-58
2021/01/23 06:26:17;;;;;;;11.02;4.00;;;307.30;1484.80;;;;;;5095780;28;20024;-58
2021/01/23 06:28:42;;;;;;;7.38;3.80;;;307.30;1484.80;;;;;;5094788;28;20024;-63
2021/01/23 06:31:23;;;;;;;9.30;3.83;;;307.30;1484.80;;;;;;5096004;28;20453;-58
2021/01/23 06:33:49;;;;;;;6.45;3.55;;;307.20;1484.80;;;;;;5095201;28;20036;-58
2021/01/23 06:36:19;;;;;;;11.48;3.08;;;307.30;1484.80;;;;;;5095219;28;20024;-57
2021/01/23 06:39:06;;;;;;;9.57;3.92;;;307.30;1484.80;;;;;;5095979;28;20492;-57
2021/01/23 06:41:33;;;;;;;8.75;3.50;;;307.30;1484.80;;;;;;5095426;28;20036;-58
2021/01/23 06:44:15;;;;;;;9.02;3.92;;;307.40;1484.80;;;;;;5093497;28;20043;-58
2021/01/23 06:46:43;;;;;;;9.98;4.07;;;307.40;1484.80;;;;;;5096266;28;20027;-58
2021/01/23 06:49:14;;;;;;;8.13;3.78;;;307.40;1484.80;;;;;;5101358;28;20431;-58
2021/01/23 06:51:41;;;;;;;6.95;3.92;;;307.30;1484.80;;;;;;5103481;28;20012;-58
2021/01/23 06:54:09;;;;;;;9.75;3.65;;;307.30;1484.80;;;;;;5104977;28;20024;-59
2021/01/23 06:56:35;;;;;;;9.40;4.75;;;307.40;1484.80;;;;;;5107226;28;20047;-66
2021/01/23 06:59:01;;;;;;;9.07;3.95;;;307.40;1484.80;;;;;;5106267;28;20032;-59
2021/01/23 07:01:27;;;;;;;48.88;37.80;;;307.40;1484.80;;;;;;5108133;28;20032;-58
2021/01/23 07:03:52;;;;;;;53.65;31.80;;;307.30;1484.80;;;;;;5107196;28;20437;-59
2021/01/23 07:06:29;;;;;;;12.57;7.32;;;307.40;1484.80;;;;;;5095045;28;20056;-58
2021/01/23 07:08:54;;;;;;;10.63;7.35;;;307.40;1484.80;;;;;;5094602;28;20016;-59
2021/01/23 07:11:23;;;;;;;10.70;5.07;;;307.40;1484.80;;;;;;5093694;28;20036;-59
2021/01/23 07:14:08;;;;;;;9.27;4.85;;;307.50;1484.80;;;;;;5094410;28;20028;-58
2021/01/23 07:16:54;;;;;;;11.10;5.13;;;307.50;1484.80;;;;;;5093901;28;20416;-58
2021/01/23 07:19:26;;;;;;;7.38;3.97;;;307.50;1484.80;;;;;;5094453;28;20358;-58
2021/01/23 07:21:54;;;;;;;10.48;4.80;;;307.50;1484.80;;;;;;5094054;28;20024;-58
2021/01/23 07:24:19;;;;;;;12.48;5.40;;;307.50;1484.80;;;;;;5094617;28;20527;-58
2021/01/23 07:26:45;;;;;;;14.07;5.55;;;307.50;1484.80;;;;;;5094066;28;20024;-58
2021/01/23 07:29:11;;;;;;;13.50;8.18;;;307.60;1484.80;;;;;;5094476;28;20020;-58
2021/01/23 07:31:37;;;;;;;11.88;5.30;;;307.60;1459.20;;;;;;5094390;28;20021;-59
2021/01/23 07:34:13;;;;;;;12.02;7.40;;;307.60;1459.20;;;;;;5094109;28;20034;-58
2021/01/23 07:36:44;;;;;;;12.60;5.78;;;307.50;1484.80;;;;;;5093970;28;20386;-58
2021/01/23 07:39:25;;;;;;;17.48;12.07;;;307.50;1484.80;;;;;;5094306;28;20485;-58
2021/01/23 07:41:56;;;;;;;9.68;5.88;;;307.50;1484.80;;;;;;5094111;28;20036;-58
2021/01/23 07:44:25;;;;;;;11.70;4.70;;;307.60;1459.20;;;;;;5093706;28;20032;-58
2021/01/23 07:46:51;;;;;;;8.57;4.28;;;307.70;1459.20;;;;;;5105848;28;20020;-58
2021/01/23 07:49:23;;;;;;;14.70;8.38;;;307.70;1459.20;;;;;;5108085;28;20023;-58
2021/01/23 07:52:03;;;;;;;11.30;7.15;;;307.70;1459.20;;;;;;5097049;28;20024;-58
2021/01/23 07:54:30;;;;;;;13.98;7.57;;;307.80;1459.20;;;;;;5092361;28;20566;-59
2021/01/23 07:56:57;;;;;;;15.90;3.97;;;307.80;1433.60;;;;;;5093331;28;20016;-59
2021/01/23 07:59:42;;;;;;;17.77;15.38;;;307.80;1433.60;;;;;;5095952;28;20482;-58
2021/01/23 08:02:09;;;;;;;14.02;10.52;;;307.80;1433.60;;;;;;5107301;28;20389;-57
2021/01/23 08:04:36;;;;;;;10.52;6.07;;;307.80;1433.60;;;;;;5109463;28;20122;-58
2021/01/23 08:07:31;;;;;;;8.82;6.47;;;307.80;1433.60;;;;;;5107709;28;20057;-58
2021/01/23 08:10:23;;;;;;;6.55;3.83;;;307.80;1433.60;;;;;;5109177;28;20074;-58
2021/01/23 08:12:59;;;;;;;9.55;3.88;;;307.90;1408.00;;;;;;5106368;28;20504;-58
2021/01/23 08:15:30;;;;;;;14.70;5.18;;;307.90;1408.00;;;;;;5107095;28;20102;-58
2021/01/23 08:17:56;;;;;;;12.68;4.75;;;308.00;1408.00;;;;;;5111716;28;20121;-59
2021/01/23 08:20:32;;;;;;;9.32;4.40;;;308.10;1408.00;;;;;;5112806;28;20098;-58
2021/01/23 08:23:09;;;;;;;13.70;4.72;;;308.10;1382.40;;;;;;5112428;28;20839;-59
2021/01/23 08:25:37;;;;;;;7.47;5.50;;;332.80;1408.00;;;;;;5080436;28;20083;-58
2021/01/23 08:28:05;;;;;;;14.18;5.25;;;332.80;1408.00;;;;;;5093007;28;20051;-58
2021/01/23 08:30:31;;;;;;;13.65;5.00;;;332.80;1408.00;;;;;;5093151;28;20027;-58
2021/01/23 08:32:57;;;;;;;9.48;5.07;;;332.80;1408.00;;;;;;5092839;28;20054;-57
2021/01/23 08:35:24;;;;;;;12.68;5.07;;;332.80;1408.00;;;;;;5092923;28;20064;-58
2021/01/23 08:37:50;;;;;;;9.07;5.13;;;332.90;1408.00;;;;;;5107051;28;20528;-58
2021/01/23 08:40:21;;;;;;;9.00;4.50;;;333.00;1408.00;;;;;;5108615;28;20407;-58
2021/01/23 08:42:47;;;;;;;8.60;4.93;;;333.10;1408.00;;;;;;5092562;28;20020;-58
2021/01/23 08:45:13;;;;;;;11.45;5.85;;;333.10;1408.00;;;;;;5093580;28;20091;-58
2021/01/23 08:47:39;;;;;;;9.63;5.05;;;333.00;1408.00;;;;;;5093225;28;20450;-57
2021/01/23 08:50:06;;;;;;;12.73;5.63;;;333.10;1408.00;;;;;;5076960;28;20382;-58
2021/01/23 08:52:31;;;;;;;13.48;7.20;;;333.20;1382.40;;;;;;5100829;28;20044;-58
2021/01/23 08:54:57;;;;;;;9.75;4.68;;;333.20;1408.00;;;;;;5092494;28;20020;-58
2021/01/23 08:57:23;;;;;;;11.60;5.80;;;333.20;1382.40;;;;;;5092533;28;20083;-58
2021/01/23 08:59:48;;;;;;;11.32;5.53;;;333.20;1382.40;;;;;;5092528;28;20103;-58
2021/01/23 09:02:14;;;;;;;369.55;185.30;;;333.30;1382.40;;;;;;5093075;28;20020;-58
2021/01/23 09:04:42;;;;;;;46.00;29.73;;;333.30;1382.40;;;;;;5092120;28;20139;-58
2021/01/23 09:07:11;;;;;;;15.68;11.73;;;333.30;1382.40;;;;;;5092835;28;20055;-58
2021/01/23 09:09:36;;;;;;;56.40;50.50;;;333.30;1408.00;;;;;;5092282;28;20028;-59
2021/01/23 09:12:03;;;;;;;16.63;11.70;;;333.30;1382.40;;;;;;5092028;28;20111;-58
2021/01/23 09:14:28;;;;;;;7.80;4.55;;;333.30;1382.40;;;;;;5092749;28;20463;-59
2021/01/23 09:16:54;;;;;;;14.05;7.38;;;333.50;1382.40;;;;;;5078654;28;20033;-59
2021/01/23 09:19:20;;;;;;;9.00;5.60;;;333.50;1382.40;;;;;;5092405;28;20031;-59
2021/01/23 09:21:46;;;;;;;13.18;6.28;;;333.50;1356.80;;;;;;5092029;28;20019;-58
2021/01/23 09:24:13;;;;;;;10.13;5.50;;;333.60;1382.40;;;;;;5094490;28;20351;-59
2021/01/23 09:26:39;;;;;;;11.07;5.82;;;333.50;1356.80;;;;;;5096100;28;20526;-59
2021/01/23 09:29:05;;;;;;;9.93;5.50;;;333.50;1382.40;;;;;;5092250;28;20107;-61
2021/01/23 09:31:31;;;;;;;14.93;6.72;;;333.60;1356.80;;;;;;5102375;28;20107;-59
2021/01/23 09:33:56;;;;;;;23.02;14.32;;;333.70;1356.80;;;;;;5091845;28;20046;-58
2021/01/23 09:36:22;;;;;;;16.55;9.15;;;358.40;1356.80;;;;;;5098388;28;20081;-58
2021/01/23 09:38:48;;;;;;;51.47;36.90;;;358.40;1356.80;;;;;;5098255;28;20102;-59
2021/01/23 09:41:14;;;;;;;13.27;8.40;;;333.70;1356.80;;;;;;5095988;28;20322;-58
2021/01/23 09:43:39;;;;;;;14.18;12.68;;;358.40;1356.80;;;;;;5096768;28;20031;-58
2021/01/23 09:46:05;;;;;;;9.23;6.47;;;358.40;1331.20;;;;;;5103154;28;20095;-57
2021/01/23 09:48:31;;;;;;;19.55;17.17;;;358.60;1331.20;;;;;;5081337;28;20024;-61
2021/01/23 09:50:57;;;;;;;6.95;4.07;;;358.60;1331.20;;;;;;5086653;28;20031;-61
2021/01/23 09:53:22;;;;;;;13.07;6.72;;;358.60;1331.20;;;;;;5104617;28;20016;-61
2021/01/23 09:55:48;;;;;;;7.03;5.18;;;358.70;1382.40;;;;;;5108231;28;20012;-62
2021/01/23 09:58:14;;;;;;;11.95;4.57;;;358.90;1510.40;;;;;;5098902;28;20485;-62
2021/01/23 10:00:40;;;;;;;6.90;4.15;;;358.90;1305.60;;;;;;5096116;28;20036;-60
2021/01/23 10:03:06;;;;;;;9.95;5.30;;;358.90;1331.20;;;;;;5095785;28;20035;-61
2021/01/23 10:05:33;;;;;;;9.52;4.90;;;358.90;1305.60;;;;;;5095751;28;20055;-61
2021/01/23 10:07:58;;;;;;;8.93;4.22;;;358.80;1331.20;;;;;;5095686;28;20342;-61
2021/01/23 10:10:24;;;;;;;10.93;5.28;;;358.80;1305.60;;;;;;5095857;28;20024;-60
2021/01/23 10:12:51;;;;;;;12.13;4.85;;;358.80;1331.20;;;;;;5095988;28;20418;-59
2021/01/23 10:15:17;;;;;;;13.60;3.90;;;358.90;1305.60;;;;;;5095471;28;20454;-59
2021/01/23 10:17:42;;;;;;;6.72;4.47;;;358.90;1305.60;;;;;;5095661;28;20032;-58
2021/01/23 10:20:09;;;;;;;10.18;5.35;;;358.90;1331.20;;;;;;5095536;28;20027;-60
2021/01/23 10:22:35;;;;;;;8.07;4.28;;;358.90;1331.20;;;;;;5095600;28;20429;-61
2021/01/23 10:25:00;;;;;;;9.35;5.10;;;358.90;1305.60;;;;;;5095612;28;20141;-60
2021/01/23 10:27:26;;;;;;;9.27;4.45;;;358.90;1331.20;;;;;;5095210;28;20573;-59
2021/01/23 10:29:52;;;;;;;6.68;4.35;;;358.80;1331.20;;;;;;5095870;28;20103;-60
2021/01/23 10:32:18;;;;;;;8.93;4.60;;;358.90;1305.60;;;;;;5095466;28;20089;-60
2021/01/23 10:34:44;;;;;;;9.00;5.65;;;358.90;1331.20;;;;;;5095296;28;20473;-60
2021/01/23 10:37:09;;;;;;;9.25;4.60;;;358.90;1305.60;;;;;;5094998;28;20031;-61
2021/01/23 10:39:36;;;;;;;8.82;5.38;;;358.90;1305.60;;;;;;5095413;28;20024;-61
2021/01/23 10:42:02;;;;;;;9.93;4.93;;;358.90;1305.60;;;;;;5094763;28;20028;-61
2021/01/23 10:44:28;;;;;;;8.70;4.50;;;359.00;1305.60;;;;;;5095041;28;20032;-60
2021/01/23 10:46:53;;;;;;;8.10;5.47;;;359.00;1305.60;;;;;;5094717;28;20050;-60
2021/01/23 10:49:19;;;;;;;13.10;6.85;;;358.90;1305.60;;;;;;5076902;28;20040;-61
2021/01/23 10:51:45;;;;;;;9.93;5.03;;;359.10;1305.60;;;;;;5076462;28;20125;-61
2021/01/23 10:54:11;;;;;;;9.30;5.82;;;359.00;1305.60;;;;;;5094697;28;20024;-59
2021/01/23 10:56:37;;;;;;;13.80;6.53;;;359.10;1305.60;;;;;;5095675;28;20020;-63
2021/01/23 10:59:03;;;;;;;13.63;6.72;;;359.10;1280.00;;;;;;5097747;28;20028;-61
2021/01/23 11:01:32;;;;;;;14.70;6.15;;;359.10;1280.00;;;;;;5080534;28;20086;-62
2021/01/23 11:03:58;;;;;;;;;;;359.00;1305.60;;;;;;5096380;28;20032;-64
2021/01/23 11:06:24;;;;;;;8.95;5.50;;;359.00;1305.60;;;;;;5096593;28;20318;-61
2021/01/23 11:08:50;;;;;;;12.80;6.00;;;359.00;1305.60;;;;;;5096662;28;20493;-61
2021/01/23 11:11:16;;;;;;;9.25;5.30;;;358.90;1305.60;;;;;;5095597;28;20040;-60
2021/01/23 11:13:42;;;;;;;10.75;5.35;;;358.90;1331.20;;;;;;5094514;28;20023;-60
2021/01/23 11:16:08;;;;;;;10.63;6.60;;;358.90;1331.20;;;;;;5094411;28;20028;-60
2021/01/23 11:18:35;;;;;;;11.88;5.40;;;358.90;1331.20;;;;;;5094587;28;20088;-59
2021/01/23 11:21:01;;;;;;;11.27;5.78;;;358.90;1331.20;;;;;;5094554;28;20461;-59
2021/01/23 11:23:26;;;;;;;9.00;5.60;;;358.80;1331.20;;;;;;5094307;28;20051;-60
2021/01/23 11:25:52;;;;;;;12.68;6.63;;;358.80;1331.20;;;;;;5094299;28;20036;-61
2021/01/23 11:28:18;;;;;;;12.85;6.82;;;358.90;1331.20;;;;;;5093896;28;21801;-62
2021/01/23 11:30:43;;;;;;;14.27;6.22;;;358.90;1331.20;;;;;;5094427;28;20169;-60
2021/01/23 11:33:09;;;;;;;10.45;5.53;;;358.90;1331.20;;;;;;5093738;28;20414;-61
2021/01/23 11:35:35;;;;;;;11.55;6.07;;;358.80;1331.20;;;;;;5094242;28;20023;-61
2021/01/23 11:38:02;;;;;;;12.82;5.57;;;359.00;1305.60;;;;;;5094080;28;20113;-61
2021/01/23 11:40:28;;;;;;;9.32;5.30;;;358.90;1331.20;;;;;;5094061;28;20020;-60
2021/01/23 11:42:55;;;;;;;12.20;5.15;;;359.00;1305.60;;;;;;5093779;28;20478;-61
2021/01/23 11:45:21;;;;;;;11.32;6.07;;;359.00;1331.20;;;;;;5094128;28;20106;-61
2021/01/23 11:47:48;;;;;;;10.60;5.82;;;359.10;1305.60;;;;;;5093516;28;20119;-61
2021/01/23 11:50:13;;;;;;;9.35;5.72;;;359.10;1331.20;;;;;;5093647;28;20028;-60
2021/01/23 11:52:39;;;;;;;12.95;6.28;;;359.30;1305.60;;;;;;5093794;28;20031;-60
2021/01/23 11:55:06;;;;;;;11.95;6.30;;;359.20;1305.60;;;;;;5094094;28;20054;-61
2021/01/23 11:57:34;;;;;;;10.13;5.15;;;384.00;1305.60;;;;;;5092837;28;20012;-65
2021/01/23 11:59:59;;;;;;;8.60;5.07;;;384.20;1280.00;;;;;;5093246;28;20111;-60
2021/01/23 12:02:25;;;;;;;10.07;5.50;;;384.30;1280.00;;;;;;5093966;28;20056;-62
2021/01/23 12:04:51;;;;;;;9.60;5.35;;;384.50;1254.40;;;;;;5082230;28;20040;-62
2021/01/23 12:07:19;;;;;;;11.75;4.90;;;384.70;1228.80;;;;;;5114023;28;20024;-62
2021/01/23 12:09:44;;;;;;;10.27;4.78;;;384.70;1228.80;;;;;;5113463;28;20331;-60
2021/01/23 12:12:10;;;;;;;6.50;4.30;;;384.90;1228.80;;;;;;5113809;28;20107;-61
2021/01/23 12:14:36;;;;;;;10.65;5.05;;;409.60;1228.80;;;;;;5113483;28;20103;-60
2021/01/23 12:17:02;;;;;;;9.63;5.07;;;409.70;1228.80;;;;;;5113897;28;20016;-64
2021/01/23 12:19:28;;;;;;;11.88;5.53;;;409.60;1228.80;;;;;;5096010;28;20032;-60